Cibecue, Arizona
Current Conditions -  °F | °C
As of 5:35 PM on Monday 20 Oct 2014 (Local Time) from KSOW Reporting Station
Broken Clouds Broken Clouds  
Wind Chill: 57°   Ceiling: 8000
Heat Index: 57°   Visibility: 10mi
Dew Point: 39°   Wind: 0mph
Humidity: 51%   Direction: NA
Pressure: 30.16"   Gusts: NA
Location:  34.03°N, 110.48°W
Report Text: KSOW 210035Z AUTO 00000KT 10SM SCT060 BKN080 14/04 A3016 RMK AO2
Loading
Personal Weather Stations






























Interactive Weather Map
Tropical Storm Tracking
New forecast layout! Learn more

10-Day Weather Forecast

Advertisements
Track Severe Weather on mobile